메인 페이지
METAR-TAF:

METAR-TAF

공항 :

자발푸르, 인도

위도: 23-10-54N, 경도: 80-03-31E, 고도: 495m

현재 날씨관측

예보는 9 시간 50분 전, 13:00시(UTC)에 발표되었습니다.
서남서8kt
온도 39°C
습도 24%
기압 1001 hPa
시정: 4000m
연무

METAR: VAJB 281300Z 24008KT 4000 HZ NSC 39/15 Q1001

시각: 04:20 (22:50 UTC)

예보

예보는 11 시간 50분 전, 11:00시(UTC)에 발표되었습니다.
예보 대상 시간: 28일 12시부터 28일 21시까지 (UTC)
8kt
시정: 6000m
고도 2000ft 상공 구름 보통
전환 중
28일 18시부터 28일 20시까지 (UTC)
남서10kt
시정: 6000m
고도 3000ft 상공 구름 조금
고도 10000ft 상공 구름 보통

TAF: VAJB 281100Z 2812/2821 27008KT 6000 SCT020 BECMG 2818/2820 22010KT 6000 FEW030 SCT100

4,000개 이상의 공항 관측 자료 및 예보 (METAR 및 TAF 보고).

지도상에서 검색 가능한 기상관측소가 노란 점과 빨간 점으로 표시되어 있습니다.

기상관측소 명을 보려면 표시 위로 마우스를 이동하세요.

날씨 관측과 예보를 보려면 클릭하세요.

지도 변경 : 확대하려면 엑스 표시가 있는 녹색 버튼, 축소하려면 빼기 표시가 있는 녹색 버튼, 다음 페이지의 지도를 보려면 녹색 화살표를 클릭하세요.


METAR-TAF: